Station APAM2 - 8575512 - Annapolis, MD Image indicating link to RSS feed of recent meteorological observations for station APAM2


Conditions at APAM2 as of
(2:00 am EDT)
0600 GMT on 05/07/2026:
     

Click on the graph icon in the table below to see a time series plot of the last five days of that observation.

5-day plot - Wind Direction Wind Direction (WDIR):WNW ( 300 deg true )
5-day plot - Wind Speed Wind Speed (WSPD): 11.1 kts
5-day plot - Wind Gust Wind Gust (GST): 14.0 kts
5-day plot - Atmospheric Pressure Atmospheric Pressure (PRES):29.82 in
5-day plot - Pressure Tendency Pressure Tendency (PTDY):+0.03 in ( Rising )
5-day plot - Air Temperature Air Temperature (ATMP): 59.4 °F
5-day plot - Water Temperature Water Temperature (WTMP): 63.9 °F
5-day plot -  Wind Speed, Wind Gust and Atmospheric Pressure Combined plot of Wind Speed, Gust, and Air Pressure
NOS Water Level Observation Network Water Level
Previous observations
TIME
(EDT)
5-day plot - Wind Direction
WDIR
 
5-day plot - Wind Speed
WSPD
kts
5-day plot - Wind Gust
GST
kts
5-day plot - Wave Height
WVHT
ft
5-day plot - Dominant Wave Period
DPD
sec
5-day plot - Average Wave Period
APD
sec
5-day plot - Mean Wave Direction
MWD
 
5-day plot - Atmospheric Pressure
PRES
in
5-day plot - Pressure Tendency
PTDY
in
5-day plot - Air Temperature
ATMP
°F
5-day plot - Water Temperature
WTMP
°F
5-day plot - Dew Point
DEWP
°F
5-day plot - Salinity
SAL
psu
5-day plot - Visibility
VIS
nmi
5-day plot - Tide (above MLLW)
TIDE
ft
2026-05-07 01:54 amWNW 9.9 12.0----29.82- 59.5 63.9----
2026-05-07 01:48 am NW 7.0 11.1----29.82-------
2026-05-07 01:42 am NW 8.9 12.0----29.81-------
2026-05-07 01:36 am NW 11.1 13.0----29.81-------
2026-05-07 01:30 am NW 11.1 13.0----29.82- 60.4 63.9----
2026-05-07 01:24 am NW 11.1 13.0----29.83- 61.0 63.9----
2026-05-07 01:18 am NW 11.1 13.0----29.83-------
2026-05-07 01:12 amWNW 8.9 12.0----29.82-------
2026-05-07 01:06 amWNW 4.1 8.9----29.82-------
2026-05-07 01:00 am W 8.0 11.1----29.82+0.05 63.0 63.7----
2026-05-07 12:54 am W 2.9 7.0----29.82- 63.7 63.7----
2026-05-07 12:48 amWSW 2.9 8.9----29.83-------
2026-05-07 12:42 am W 7.0 9.9----29.82-------
2026-05-07 12:36 am W 6.0 8.9----29.81-------
2026-05-07 12:30 am W 7.0 9.9----29.81- 64.8 63.7----
2026-05-07 12:24 am W 6.0 8.0----29.81- 64.8 63.7----
2026-05-07 12:18 am W 7.0 8.9----29.80-- 63.9----
2026-05-07 12:12 amWNW 7.0 9.9----29.79-- 63.9----
2026-05-07 12:06 amWNW 8.9 11.1----29.80-- 63.9----
2026-05-07 12:00 amWNW 9.9 13.0----29.80+0.00 65.1 63.9----
2026-05-06 11:54 pmWNW 11.1 15.0----29.80- 65.3 63.9----
2026-05-06 11:48 pm W 11.1 15.9------------
2026-05-06 11:42 pmWNW 12.0 15.0------------
2026-05-06 11:36 pmWNW 14.0 18.1------------
2026-05-06 11:30 pmWNW 14.0 17.1----29.80- 66.0 63.7----
2026-05-06 11:24 pmWNW 8.9 12.0----29.79- 66.0 63.7----
2026-05-06 11:18 pmWNW 7.0 9.9----29.79-- 63.7----
2026-05-06 11:12 pm W 5.1 6.0----29.79-- 63.7----
2026-05-06 11:06 pmWNW 5.1 6.0----29.79-- 63.7----
2026-05-06 11:00 pmWNW 4.1 9.9----29.79+0.01 66.6 63.7----
2026-05-06 10:54 pmWNW 7.0 9.9----29.79- 65.3 63.5----
2026-05-06 10:48 pm- 0.0 1.9----29.79-- 63.5----
2026-05-06 10:42 pm E 1.9 1.9----29.78-- 63.7----
2026-05-06 10:36 pm E 1.9 2.9----29.78-- 63.7----
2026-05-06 10:30 pm E 2.9 2.9----29.78- 63.7 63.7----
2026-05-06 10:24 pmESE 1.9 1.9----29.78- 64.2 63.7----
2026-05-06 10:18 pmESE 1.0 4.1----29.78-- 63.7----
2026-05-06 10:12 pm SE 2.9 4.1----29.78-- 63.7----
2026-05-06 10:06 pm S 1.0 1.9----29.78-- 63.7----
2026-05-06 10:00 pm SE 1.9 1.9----29.78+0.01 65.8 63.7----
2026-05-06 09:54 pmESE 1.9 2.9----29.78- 66.0 63.7----
2026-05-06 09:48 pm E 2.9 2.9------------
2026-05-06 09:42 pm E 1.9 1.9------------
2026-05-06 09:36 pmESE 1.9 2.9------------
2026-05-06 09:30 pm SE 1.9 1.9----29.80- 64.8 63.5----
2026-05-06 09:24 pm SE 1.9 4.1----29.80- 66.2 63.5----
2026-05-06 09:18 pmSSE 2.9 4.1----29.80-------
2026-05-06 09:12 pm- 0.0 1.9----29.80-------
2026-05-06 09:06 pm SE 1.9 1.9----29.80-------
2026-05-06 09:00 pmESE 1.0 1.9----29.79+0.03 63.9 63.5----
2026-05-06 08:54 pm E 1.0 1.9----29.79- 63.9 63.5----
2026-05-06 08:48 pm SE 1.9 4.1----29.78-------
2026-05-06 08:42 pmESE 2.9 5.1----29.78-------
2026-05-06 08:36 pm SE 1.9 2.9----29.78-------
2026-05-06 08:30 pm SE 1.9 1.9----29.78- 68.5 63.3----
2026-05-06 08:24 pm S 1.9 2.9----29.78- 68.7 63.5----
2026-05-06 08:18 pmSSE 1.9 4.1----29.78- 69.1 63.7----
2026-05-06 08:12 pmSSW 1.9 2.9----29.78- 69.1 63.7----
2026-05-06 08:06 pmSSE 1.9 4.1----29.78- 69.1 63.7----
2026-05-06 08:00 pm- 0.0 2.9----29.78+0.03 69.3 63.7----
2026-05-06 07:54 pmSSE 1.9 5.1----29.78- 69.3 63.5----
2026-05-06 07:48 pmSSE 2.9 5.1------------
2026-05-06 07:42 pm S 4.1 5.1------------
2026-05-06 07:36 pm SW 1.0 5.1------------
2026-05-06 07:30 pmSSW 4.1 6.0----29.77- 69.8 63.5----
2026-05-06 07:24 pmSSW 1.9 5.1----29.76- 70.2 63.5----
2026-05-06 07:00 pmSSW 4.1 8.0----29.77+0.02 70.2 63.7----
2026-05-06 06:54 pmSSW 4.1 7.0----29.76- 70.3 63.7----
2026-05-06 06:48 pm S 2.9 5.1------------
2026-05-06 06:42 pm S 4.1 6.0------------
2026-05-06 06:36 pm S 5.1 8.9------------
2026-05-06 06:30 pm S 2.9 9.9----29.76- 70.5 63.5----
2026-05-06 06:24 pmSSW 2.9 8.0----29.76- 70.7 63.5----
2026-05-06 06:18 pmSSW 4.1 7.0------------
2026-05-06 06:12 pmSSW 2.9 9.9------------
2026-05-06 06:06 pm S 6.0 11.1------------
2026-05-06 06:00 pmSSW 6.0 11.1----29.76+0.00 70.7 63.5----
2026-05-06 05:54 pmSSW 5.1 8.9----29.77- 70.9 63.5----
2026-05-06 05:48 pm S 4.1 8.0----29.76-- 63.5----
2026-05-06 05:42 pm S 4.1 11.1----29.76-- 63.3----
2026-05-06 05:36 pm S 6.0 11.1----29.75-- 63.3----
2026-05-06 05:30 pm S 4.1 8.9----29.75- 71.1 63.3----
2026-05-06 05:24 pm S 5.1 11.1----29.76- 71.2 63.3----
2026-05-06 05:18 pmSSW 5.1 8.9----29.76-------
2026-05-06 05:12 pm S 5.1 8.9----29.75-------
2026-05-06 05:06 pm S 6.0 9.9----29.75-------
2026-05-06 05:00 pm S 5.1 12.0----29.75-0.04 70.5 63.5----
2026-05-06 04:54 pm S 4.1 8.0----29.75- 71.1 63.5----
2026-05-06 04:48 pm S 6.0 11.1----29.75-------
2026-05-06 04:42 pm S 6.0 13.0----29.75-------
2026-05-06 04:36 pm S 8.9 14.0----29.75-------
2026-05-06 04:30 pm S 7.0 15.0----29.75- 70.5 63.7----
2026-05-06 04:24 pm S 7.0 13.0----29.75- 70.5 63.7----
2026-05-06 04:18 pm S 5.1 11.1----29.75-------
2026-05-06 04:12 pmSSW 8.0 13.0----29.75-------
2026-05-06 04:06 pm S 6.0 11.1----29.75-------
2026-05-06 04:00 pm S 5.1 12.0----29.75-0.04 70.3 63.5----
2026-05-06 03:54 pm S 8.9 15.9----29.75- 70.0 63.7----
2026-05-06 03:48 pm S 6.0 14.0----29.75-------
2026-05-06 03:42 pm S 5.1 11.1----29.75-------
2026-05-06 03:36 pm S 6.0 13.0----29.75-------
2026-05-06 03:30 pm S 9.9 15.0----29.75- 70.3 63.3----
2026-05-06 03:24 pm S 8.0 13.0----29.75- 70.2 63.3----
2026-05-06 03:18 pm S 8.9 15.9----29.76-------
2026-05-06 03:12 pm S 8.0 11.1----29.76-------
2026-05-06 03:06 pm S 7.0 13.0----29.76-------
2026-05-06 03:00 pm S 6.0 9.9----29.76-0.05 69.6 63.3----
2026-05-06 02:54 pm S 6.0 15.0----29.76- 69.4 63.3----
2026-05-06 02:48 pm S 8.9 13.0------------
2026-05-06 02:42 pmSSW 8.0 13.0------------
2026-05-06 02:36 pm S 6.0 15.0------------
2026-05-06 02:30 pm S 7.0 13.0----29.77- 69.3 63.1----
2026-05-06 02:24 pm S 7.0 14.0----29.78- 69.1 63.1----
2026-05-06 02:18 pm S 8.0 15.0----29.78-------
2026-05-06 02:12 pm S 6.0 13.0----29.78-------
2026-05-06 02:06 pm S 8.9 18.1----29.79-------
2026-05-06 02:00 pm S 7.0 14.0----29.79-0.04 68.2 63.1----
2026-05-06 01:54 pm S 8.0 13.0----29.79- 67.6 63.1----
2026-05-06 01:48 pm S 11.1 17.1----29.79-------
2026-05-06 01:42 pm S 8.9 15.0----29.79-------
2026-05-06 01:36 pm S 6.0 18.1----29.79-------
2026-05-06 01:30 pm S 8.0 20.0----29.79- 66.6 63.0----
2026-05-06 01:24 pm S 8.0 13.0----29.80- 66.6 63.0----
2026-05-06 01:18 pm S 8.0 13.0----29.79-------
2026-05-06 01:12 pm S 8.9 17.1----29.79-------
2026-05-06 01:06 pm S 8.0 14.0----29.79-------
2026-05-06 01:00 pm S 8.9 19.0----29.79-0.04 65.7 63.0----
2026-05-06 12:54 pm S 8.9 15.9----29.80- 65.5 63.0----
2026-05-06 12:48 pm S 8.9 19.0----29.80-------
2026-05-06 12:42 pm S 8.0 13.0----29.80-------
2026-05-06 12:36 pm S 8.0 14.0----29.80-------
2026-05-06 12:30 pm S 8.9 21.0----29.80- 64.9 63.0----
2026-05-06 12:24 pm S 11.1 15.9----29.80- 64.9 62.8----
2026-05-06 12:18 pm S 6.0 12.0------------
2026-05-06 12:12 pmSSE 4.1 12.0------------
2026-05-06 12:06 pm S 6.0 13.0------------
2026-05-06 12:00 pm S 4.1 11.1----29.81-0.01 63.5 62.8----
2026-05-06 11:54 amSSE 6.0 13.0----29.81- 63.3 62.8----
2026-05-06 11:48 amSSE 6.0 9.9------------
2026-05-06 11:42 amSSE 6.0 13.0------------
2026-05-06 11:36 amSSE 6.0 13.0------------
2026-05-06 11:30 amSSE 6.0 13.0----29.82- 63.1 62.8----
2026-05-06 11:24 amSSE 7.0 11.1----29.83- 63.1 63.0----
2026-05-06 11:18 amSSE 6.0 9.9----29.83-------
2026-05-06 11:12 am S 6.0 8.9----29.83-------
2026-05-06 11:06 amSSE 4.1 7.0----29.83-------
2026-05-06 11:00 amSSE 2.9 8.0----29.83+0.00 63.0 63.0----
2026-05-06 10:54 amSSE 5.1 8.9----29.83- 63.1 63.0----
2026-05-06 10:48 am S 5.1 8.0----29.83-------
2026-05-06 10:42 amSSE 4.1 8.9----29.83-------
2026-05-06 10:36 amSSE 5.1 9.9----29.83-------
2026-05-06 10:30 amSSE 5.1 9.9----29.83- 63.9 63.0----
2026-05-06 10:24 am S 5.1 8.9----29.83- 64.0 63.0----
2026-05-06 10:18 am S 4.1 9.9----29.83-------
2026-05-06 10:12 am S 5.1 12.0----29.83-------
2026-05-06 10:06 am S 7.0 12.0----29.83-------
2026-05-06 10:00 am S 5.1 8.9----29.84+0.02 65.5 62.8----
2026-05-06 09:54 amSSE 5.1 9.9----29.84- 66.0 62.8----
2026-05-06 09:48 am S 7.0 14.0------------
2026-05-06 09:42 am S 6.0 13.0------------
2026-05-06 09:36 am S 8.0 12.0------------
2026-05-06 09:30 am S 5.1 9.9----29.83- 66.7 62.8----
2026-05-06 09:24 am S 8.0 14.0----29.83- 66.7 63.0----
2026-05-06 09:18 am S 7.0 15.0----29.83-------
2026-05-06 09:12 am S 6.0 12.0----29.83-------
2026-05-06 09:06 am S 6.0 12.0----29.83-------
2026-05-06 09:00 am S 8.9 14.0----29.83+0.01 67.1 63.0----
2026-05-06 08:54 am S 6.0 13.0----29.83- 67.1 63.0----
2026-05-06 08:48 am S 6.0 11.1----29.83-------
2026-05-06 08:42 amSSE 5.1 8.9----29.83-------
2026-05-06 08:36 am S 6.0 9.9----29.83-------
2026-05-06 08:30 am S 7.0 12.0----29.83- 66.4 63.0----
2026-05-06 08:24 am SE 4.1 8.9----29.83- 66.0 63.0----
2026-05-06 08:18 amSSE 5.1 11.1----29.83- 66.0 63.0----
2026-05-06 08:12 amSSE 5.1 12.0----29.83- 66.6 63.0----
2026-05-06 08:06 amSSE 4.1 8.0----29.84- 66.7 63.0----
2026-05-06 08:00 am SE 5.1 12.0----29.83+0.01 66.6 63.0----
2026-05-06 07:54 amSSE 6.0 8.9----29.83- 66.4 62.8----
2026-05-06 07:48 amSSE 4.1 12.0------------
2026-05-06 07:42 am SE 7.0 12.0------------
2026-05-06 07:36 amSSE 7.0 9.9------------
2026-05-06 07:30 amSSE 5.1 9.9----29.83- 65.8 62.6----
2026-05-06 07:24 amSSE 6.0 11.1----29.83- 65.5 63.0----
2026-05-06 07:18 amSSE 5.1 12.0------------
2026-05-06 07:12 amSSE 8.0 13.0------------
2026-05-06 07:06 amSSE 5.1 9.9------------
2026-05-06 07:00 am SE 6.0 9.9----29.82+0.00 64.9 62.8----
2026-05-06 06:54 amSSE 6.0 11.1----29.82- 65.3 62.6----
2026-05-06 06:48 am S 5.1 9.9----29.82-------
2026-05-06 06:42 amSSE 5.1 13.0----29.82-------
2026-05-06 06:36 am S 8.0 13.0----29.81-------
2026-05-06 06:30 amSSE 7.0 12.0----29.81- 65.8 63.0----
2026-05-06 06:24 am SE 4.1 11.1----29.81- 65.5 63.0----
2026-05-06 06:18 amSSE 6.0 11.1----29.81-------
2026-05-06 06:12 amSSE 5.1 9.9----29.81-------
2026-05-06 06:06 amSSE 5.1 9.9----29.81-------
2026-05-06 06:00 amSSE 6.0 11.1----29.81-0.01 65.7 63.0----
2026-05-06 05:54 amSSE 6.0 11.1----29.81- 65.7 63.0----
2026-05-06 05:48 am S 5.1 9.9----29.82-------
2026-05-06 05:42 am SE 5.1 8.9----29.82-------
2026-05-06 05:36 amSSE 6.0 8.9----29.82-------
2026-05-06 05:30 amSSE 5.1 8.9----29.82- 65.5 63.0----
2026-05-06 05:24 amSSE 6.0 8.9----29.82- 65.5 63.0----
2026-05-06 05:18 amSSE 5.1 8.0----29.82-- 63.0----
2026-05-06 05:12 am S 2.9 8.0----29.82-- 63.0----
2026-05-06 05:06 amSSE 5.1 9.9----29.82-- 62.8----
2026-05-06 05:00 amSSE 4.1 9.9----29.82-0.01 65.1 63.0----
2026-05-06 04:54 amSSE 5.1 8.9----29.82- 65.3 63.0----
2026-05-06 04:48 amSSE 6.0 9.9----29.82-------
2026-05-06 04:42 amSSE 6.0 12.0----29.82-------
2026-05-06 04:36 amSSE 6.0 12.0----29.82-------
2026-05-06 04:30 amSSE 6.0 12.0----29.82- 65.5 63.0----
2026-05-06 04:24 amSSE 6.0 11.1----29.82- 65.7 63.1----
2026-05-06 04:18 amSSE 6.0 11.1----29.82-------
2026-05-06 04:12 amSSE 6.0 13.0----29.82-------
2026-05-06 04:06 amSSE 7.0 12.0----29.82-------
2026-05-06 04:00 am SE 8.0 13.0----29.82-0.03 66.2 63.1----
2026-05-06 03:54 amSSE 6.0 12.0----29.82- 66.4 63.1----
2026-05-06 03:48 am SE 7.0 11.1----29.82-------
2026-05-06 03:42 amSSE 5.1 9.9----29.82-------
2026-05-06 03:36 amSSE 5.1 9.9----29.82-------
2026-05-06 03:30 amSSE 6.0 11.1----29.82- 68.0 63.1----
2026-05-06 03:24 am S 5.1 13.0----29.83- 68.4 63.1----
2026-05-06 03:18 am S 7.0 14.0----29.83-------
2026-05-06 03:12 am S 5.1 14.0----29.83-------
2026-05-06 03:06 amSSE 6.0 15.9----29.83-------
2026-05-06 03:00 am S 6.0 15.9----29.83-0.02 69.3 63.1----
2026-05-06 02:54 am S 6.0 14.0----29.83- 69.3 63.1----
2026-05-06 02:48 am S 5.1 14.0----29.83-------
2026-05-06 02:42 amSSE 5.1 12.0----29.83-------
2026-05-06 02:36 amSSE 5.1 11.1----29.83-------
2026-05-06 02:30 am SE 6.0 11.1----29.83- 68.7 63.1----
2026-05-06 02:24 amSSE 5.1 8.9----29.83- 68.5 63.1----
2026-05-06 02:18 amSSE 5.1 9.9----29.83-------
2026-05-06 02:12 amSSE 6.0 9.9----29.83-------
2026-05-06 02:06 amSSE 6.0 11.1----29.83-------
2026-05-06 02:00 am SE 6.0 8.9----29.83+0.00 68.7 63.3----
2026-05-06 01:54 amSSE 6.0 9.9----29.83- 68.7 63.3----